sensor_id;sensor_type;location;lat;lon;timestamp;temperature;humidity
4530;DHT22;2277;51.626;7.516;2022-12-10T00:01:07;3.40;99.90
4530;DHT22;2277;51.626;7.516;2022-12-10T00:03:33;3.40;99.90
4530;DHT22;2277;51.626;7.516;2022-12-10T00:06:03;3.40;99.90
4530;DHT22;2277;51.626;7.516;2022-12-10T00:08:29;3.40;99.90
4530;DHT22;2277;51.626;7.516;2022-12-10T00:10:54;3.50;99.90
4530;DHT22;2277;51.626;7.516;2022-12-10T00:13:20;3.50;99.90
4530;DHT22;2277;51.626;7.516;2022-12-10T00:15:46;3.50;99.90
4530;DHT22;2277;51.626;7.516;2022-12-10T00:18:12;3.50;99.90
4530;DHT22;2277;51.626;7.516;2022-12-10T00:20:37;3.50;99.90
4530;DHT22;2277;51.626;7.516;2022-12-10T00:23:03;3.60;99.90
4530;DHT22;2277;51.626;7.516;2022-12-10T00:25:29;3.50;99.90
4530;DHT22;2277;51.626;7.516;2022-12-10T00:27:54;3.50;99.90
4530;DHT22;2277;51.626;7.516;2022-12-10T00:30:20;3.40;99.90
4530;DHT22;2277;51.626;7.516;2022-12-10T00:32:45;3.50;99.90
4530;DHT22;2277;51.626;7.516;2022-12-10T00:35:11;3.50;99.90
4530;DHT22;2277;51.626;7.516;2022-12-10T00:37:36;3.50;99.90
4530;DHT22;2277;51.626;7.516;2022-12-10T00:40:03;3.50;99.90
4530;DHT22;2277;51.626;7.516;2022-12-10T00:42:28;3.50;99.90
4530;DHT22;2277;51.626;7.516;2022-12-10T00:44:54;3.60;99.90
4530;DHT22;2277;51.626;7.516;2022-12-10T00:47:20;3.60;99.90
4530;DHT22;2277;51.626;7.516;2022-12-10T00:49:45;3.60;99.90
4530;DHT22;2277;51.626;7.516;2022-12-10T00:52:11;3.60;99.90
4530;DHT22;2277;51.626;7.516;2022-12-10T00:54:36;3.60;99.90
4530;DHT22;2277;51.626;7.516;2022-12-10T00:57:02;3.60;99.90
4530;DHT22;2277;51.626;7.516;2022-12-10T00:59:28;3.60;99.90
4530;DHT22;2277;51.626;7.516;2022-12-10T01:01:53;3.60;99.90
4530;DHT22;2277;51.626;7.516;2022-12-10T01:04:19;3.60;99.90
4530;DHT22;2277;51.626;7.516;2022-12-10T01:06:50;3.70;99.90
4530;DHT22;2277;51.626;7.516;2022-12-10T01:09:19;3.70;99.90
4530;DHT22;2277;51.626;7.516;2022-12-10T01:11:47;3.70;99.90
4530;DHT22;2277;51.626;7.516;2022-12-10T01:14:16;3.70;99.90
4530;DHT22;2277;51.626;7.516;2022-12-10T01:16:43;3.70;99.90
4530;DHT22;2277;51.626;7.516;2022-12-10T01:19:09;3.70;99.90
4530;DHT22;2277;51.626;7.516;2022-12-10T01:21:35;3.70;99.90
4530;DHT22;2277;51.626;7.516;2022-12-10T01:24:02;3.70;99.90
4530;DHT22;2277;51.626;7.516;2022-12-10T01:26:31;3.70;99.90
4530;DHT22;2277;51.626;7.516;2022-12-10T01:28:57;3.70;99.90
4530;DHT22;2277;51.626;7.516;2022-12-10T01:31:29;3.70;99.90
4530;DHT22;2277;51.626;7.516;2022-12-10T01:33:56;3.70;99.90
4530;DHT22;2277;51.626;7.516;2022-12-10T01:36:26;3.70;99.90
4530;DHT22;2277;51.626;7.516;2022-12-10T01:38:52;3.70;99.90
4530;DHT22;2277;51.626;7.516;2022-12-10T01:41:23;3.70;99.90
4530;DHT22;2277;51.626;7.516;2022-12-10T01:46:14;3.70;99.90
4530;DHT22;2277;51.626;7.516;2022-12-10T01:48:40;3.70;99.90
4530;DHT22;2277;51.626;7.516;2022-12-10T01:51:06;3.70;99.90
4530;DHT22;2277;51.626;7.516;2022-12-10T01:53:32;3.70;99.90
4530;DHT22;2277;51.626;7.516;2022-12-10T01:55:58;3.70;99.90
4530;DHT22;2277;51.626;7.516;2022-12-10T01:58:24;3.70;99.90
4530;DHT22;2277;51.626;7.516;2022-12-10T02:03:38;3.70;99.90
4530;DHT22;2277;51.626;7.516;2022-12-10T02:06:17;3.70;99.90
4530;DHT22;2277;51.626;7.516;2022-12-10T02:11:45;3.70;99.90
4530;DHT22;2277;51.626;7.516;2022-12-10T02:14:41;3.60;99.90
4530;DHT22;2277;51.626;7.516;2022-12-10T02:17:16;3.60;99.90
4530;DHT22;2277;51.626;7.516;2022-12-10T02:19:51;3.60;99.90
4530;DHT22;2277;51.626;7.516;2022-12-10T02:22:19;3.60;99.90
4530;DHT22;2277;51.626;7.516;2022-12-10T02:24:47;3.60;99.90
4530;DHT22;2277;51.626;7.516;2022-12-10T02:27:38;3.60;99.90
4530;DHT22;2277;51.626;7.516;2022-12-10T02:30:06;3.60;99.90
4530;DHT22;2277;51.626;7.516;2022-12-10T02:32:40;3.60;99.90
4530;DHT22;2277;51.626;7.516;2022-12-10T02:35:16;3.70;99.90
4530;DHT22;2277;51.626;7.516;2022-12-10T02:37:53;3.60;99.90
4530;DHT22;2277;51.626;7.516;2022-12-10T02:40:24;3.70;99.90
4530;DHT22;2277;51.626;7.516;2022-12-10T02:42:52;3.60;99.90
4530;DHT22;2277;51.626;7.516;2022-12-10T02:45:21;3.60;99.90
4530;DHT22;2277;51.626;7.516;2022-12-10T02:47:47;3.70;99.90
4530;DHT22;2277;51.626;7.516;2022-12-10T02:50:15;3.70;99.90
4530;DHT22;2277;51.626;7.516;2022-12-10T02:52:44;3.70;99.90
4530;DHT22;2277;51.626;7.516;2022-12-10T02:55:13;3.70;99.90
4530;DHT22;2277;51.626;7.516;2022-12-10T03:00:18;3.70;99.90
4530;DHT22;2277;51.626;7.516;2022-12-10T03:03:20;3.60;99.90
4530;DHT22;2277;51.626;7.516;2022-12-10T03:06:12;3.60;99.90
4530;DHT22;2277;51.626;7.516;2022-12-10T03:09:04;3.60;99.90
4530;DHT22;2277;51.626;7.516;2022-12-10T03:11:31;3.60;99.90
4530;DHT22;2277;51.626;7.516;2022-12-10T03:16:23;3.50;99.90
4530;DHT22;2277;51.626;7.516;2022-12-10T03:18:55;3.50;99.90
4530;DHT22;2277;51.626;7.516;2022-12-10T03:21:22;3.50;99.90
4530;DHT22;2277;51.626;7.516;2022-12-10T03:23:50;3.60;99.90
4530;DHT22;2277;51.626;7.516;2022-12-10T03:26:16;3.60;99.90
4530;DHT22;2277;51.626;7.516;2022-12-10T03:28:50;3.60;99.90
4530;DHT22;2277;51.626;7.516;2022-12-10T03:31:18;3.70;99.90
4530;DHT22;2277;51.626;7.516;2022-12-10T03:33:45;3.70;99.90
4530;DHT22;2277;51.626;7.516;2022-12-10T03:36:12;3.70;99.90
4530;DHT22;2277;51.626;7.516;2022-12-10T03:38:38;3.70;99.90
4530;DHT22;2277;51.626;7.516;2022-12-10T03:41:05;3.70;99.90
4530;DHT22;2277;51.626;7.516;2022-12-10T03:43:31;3.70;99.90
4530;DHT22;2277;51.626;7.516;2022-12-10T03:45:56;3.60;99.90
4530;DHT22;2277;51.626;7.516;2022-12-10T03:48:22;3.60;99.90
4530;DHT22;2277;51.626;7.516;2022-12-10T03:50:47;3.60;99.90
4530;DHT22;2277;51.626;7.516;2022-12-10T03:53:13;3.60;99.90
4530;DHT22;2277;51.626;7.516;2022-12-10T03:55:39;3.60;99.90
4530;DHT22;2277;51.626;7.516;2022-12-10T03:58:05;3.60;99.90
4530;DHT22;2277;51.626;7.516;2022-12-10T04:00:30;3.60;99.90
4530;DHT22;2277;51.626;7.516;2022-12-10T04:02:56;3.70;99.90
4530;DHT22;2277;51.626;7.516;2022-12-10T04:05:22;3.70;99.90
4530;DHT22;2277;51.626;7.516;2022-12-10T04:07:47;3.70;99.90
4530;DHT22;2277;51.626;7.516;2022-12-10T04:10:13;3.70;99.90
4530;DHT22;2277;51.626;7.516;2022-12-10T04:12:39;3.60;99.90
4530;DHT22;2277;51.626;7.516;2022-12-10T04:15:04;3.70;99.90
4530;DHT22;2277;51.626;7.516;2022-12-10T04:17:49;3.70;99.90
4530;DHT22;2277;51.626;7.516;2022-12-10T04:20:14;3.70;99.90
4530;DHT22;2277;51.626;7.516;2022-12-10T04:22:58;3.60;99.90
4530;DHT22;2277;51.626;7.516;2022-12-10T04:25:42;3.60;99.90
4530;DHT22;2277;51.626;7.516;2022-12-10T04:28:27;3.50;99.90
4530;DHT22;2277;51.626;7.516;2022-12-10T04:30:52;3.50;99.90
4530;DHT22;2277;51.626;7.516;2022-12-10T04:33:18;3.40;99.90
4530;DHT22;2277;51.626;7.516;2022-12-10T04:35:44;3.40;99.90
4530;DHT22;2277;51.626;7.516;2022-12-10T04:38:09;3.40;99.90
4530;DHT22;2277;51.626;7.516;2022-12-10T04:40:35;3.40;99.90
4530;DHT22;2277;51.626;7.516;2022-12-10T04:43:00;3.40;99.90
4530;DHT22;2277;51.626;7.516;2022-12-10T04:45:26;3.30;99.90
4530;DHT22;2277;51.626;7.516;2022-12-10T04:47:51;3.40;99.90
4530;DHT22;2277;51.626;7.516;2022-12-10T04:50:17;3.40;99.90
4530;DHT22;2277;51.626;7.516;2022-12-10T04:52:42;3.30;99.90
4530;DHT22;2277;51.626;7.516;2022-12-10T04:55:08;3.30;99.90
4530;DHT22;2277;51.626;7.516;2022-12-10T04:57:34;3.30;99.90
4530;DHT22;2277;51.626;7.516;2022-12-10T04:59:59;3.20;99.90
4530;DHT22;2277;51.626;7.516;2022-12-10T05:02:25;3.20;99.90
4530;DHT22;2277;51.626;7.516;2022-12-10T05:04:50;3.20;99.90
4530;DHT22;2277;51.626;7.516;2022-12-10T05:07:16;3.20;99.90
4530;DHT22;2277;51.626;7.516;2022-12-10T05:09:41;3.10;99.90
4530;DHT22;2277;51.626;7.516;2022-12-10T05:12:07;3.10;99.90
4530;DHT22;2277;51.626;7.516;2022-12-10T05:14:33;3.00;99.90
4530;DHT22;2277;51.626;7.516;2022-12-10T05:16:58;2.80;99.90
4530;DHT22;2277;51.626;7.516;2022-12-10T05:19:24;2.70;99.90
4530;DHT22;2277;51.626;7.516;2022-12-10T05:21:52;2.70;99.90
4530;DHT22;2277;51.626;7.516;2022-12-10T05:24:37;2.70;99.90
4530;DHT22;2277;51.626;7.516;2022-12-10T05:27:03;2.70;99.90
4530;DHT22;2277;51.626;7.516;2022-12-10T05:29:30;2.80;99.90
4530;DHT22;2277;51.626;7.516;2022-12-10T05:31:57;2.80;99.90
4530;DHT22;2277;51.626;7.516;2022-12-10T05:34:22;2.80;99.90
4530;DHT22;2277;51.626;7.516;2022-12-10T05:36:48;2.80;99.90
4530;DHT22;2277;51.626;7.516;2022-12-10T05:39:14;2.70;99.90
4530;DHT22;2277;51.626;7.516;2022-12-10T05:41:40;2.70;99.90
4530;DHT22;2277;51.626;7.516;2022-12-10T05:44:06;2.70;99.90
4530;DHT22;2277;51.626;7.516;2022-12-10T05:46:34;2.80;99.90
4530;DHT22;2277;51.626;7.516;2022-12-10T05:49:01;2.80;99.90
4530;DHT22;2277;51.626;7.516;2022-12-10T05:51:29;2.80;99.90
4530;DHT22;2277;51.626;7.516;2022-12-10T05:53:57;2.80;99.90
4530;DHT22;2277;51.626;7.516;2022-12-10T05:56:24;2.70;99.90
4530;DHT22;2277;51.626;7.516;2022-12-10T05:58:52;2.60;99.90
4530;DHT22;2277;51.626;7.516;2022-12-10T06:01:24;2.60;99.90
4530;DHT22;2277;51.626;7.516;2022-12-10T06:03:50;2.60;99.90
4530;DHT22;2277;51.626;7.516;2022-12-10T06:06:25;2.80;99.90
4530;DHT22;2277;51.626;7.516;2022-12-10T06:08:52;2.70;99.90
4530;DHT22;2277;51.626;7.516;2022-12-10T06:11:18;2.60;99.90
4530;DHT22;2277;51.626;7.516;2022-12-10T06:13:44;2.50;99.90
4530;DHT22;2277;51.626;7.516;2022-12-10T06:16:12;2.40;99.90
4530;DHT22;2277;51.626;7.516;2022-12-10T06:18:38;2.40;99.90
4530;DHT22;2277;51.626;7.516;2022-12-10T06:21:09;2.40;99.90
4530;DHT22;2277;51.626;7.516;2022-12-10T06:23:36;2.40;99.90
4530;DHT22;2277;51.626;7.516;2022-12-10T06:26:10;2.40;99.90
4530;DHT22;2277;51.626;7.516;2022-12-10T06:28:37;2.40;99.90
4530;DHT22;2277;51.626;7.516;2022-12-10T06:31:03;2.40;99.90
4530;DHT22;2277;51.626;7.516;2022-12-10T06:33:29;2.30;99.90
4530;DHT22;2277;51.626;7.516;2022-12-10T06:35:54;2.30;99.90
4530;DHT22;2277;51.626;7.516;2022-12-10T06:38:20;2.40;99.90
4530;DHT22;2277;51.626;7.516;2022-12-10T06:40:45;2.40;99.90
4530;DHT22;2277;51.626;7.516;2022-12-10T06:43:11;2.40;99.90
4530;DHT22;2277;51.626;7.516;2022-12-10T06:45:41;2.50;99.90
4530;DHT22;2277;51.626;7.516;2022-12-10T06:48:07;2.50;99.90
4530;DHT22;2277;51.626;7.516;2022-12-10T06:50:32;2.50;99.90
4530;DHT22;2277;51.626;7.516;2022-12-10T06:52:58;2.50;99.90
4530;DHT22;2277;51.626;7.516;2022-12-10T06:55:23;2.50;99.90
4530;DHT22;2277;51.626;7.516;2022-12-10T06:57:52;2.50;99.90
4530;DHT22;2277;51.626;7.516;2022-12-10T07:00:19;2.50;99.90
4530;DHT22;2277;51.626;7.516;2022-12-10T07:02:45;2.50;99.90
4530;DHT22;2277;51.626;7.516;2022-12-10T07:05:11;2.30;99.90
4530;DHT22;2277;51.626;7.516;2022-12-10T07:07:36;2.30;99.90
4530;DHT22;2277;51.626;7.516;2022-12-10T07:10:03;2.40;99.90
4530;DHT22;2277;51.626;7.516;2022-12-10T07:12:29;2.40;99.90
4530;DHT22;2277;51.626;7.516;2022-12-10T07:14:54;2.30;99.90
4530;DHT22;2277;51.626;7.516;2022-12-10T07:17:20;2.30;99.90
4530;DHT22;2277;51.626;7.516;2022-12-10T07:19:46;2.30;99.90
4530;DHT22;2277;51.626;7.516;2022-12-10T07:22:11;2.20;99.90
4530;DHT22;2277;51.626;7.516;2022-12-10T07:24:37;2.00;99.90
4530;DHT22;2277;51.626;7.516;2022-12-10T07:27:05;2.00;99.90
4530;DHT22;2277;51.626;7.516;2022-12-10T07:29:31;1.90;99.90
4530;DHT22;2277;51.626;7.516;2022-12-10T07:31:57;2.00;99.90
4530;DHT22;2277;51.626;7.516;2022-12-10T07:34:22;1.90;99.90
4530;DHT22;2277;51.626;7.516;2022-12-10T07:36:48;1.90;99.90
4530;DHT22;2277;51.626;7.516;2022-12-10T07:39:14;1.90;99.90
4530;DHT22;2277;51.626;7.516;2022-12-10T07:41:43;1.90;99.90
4530;DHT22;2277;51.626;7.516;2022-12-10T07:44:11;1.90;99.90
4530;DHT22;2277;51.626;7.516;2022-12-10T07:46:38;2.00;99.90
4530;DHT22;2277;51.626;7.516;2022-12-10T07:49:04;1.90;99.90
4530;DHT22;2277;51.626;7.516;2022-12-10T07:51:29;1.80;99.90
4530;DHT22;2277;51.626;7.516;2022-12-10T07:53:55;1.90;99.90
4530;DHT22;2277;51.626;7.516;2022-12-10T07:56:23;1.90;99.90
4530;DHT22;2277;51.626;7.516;2022-12-10T07:58:49;1.90;99.90
4530;DHT22;2277;51.626;7.516;2022-12-10T08:01:20;1.90;99.90
4530;DHT22;2277;51.626;7.516;2022-12-10T08:03:48;2.00;99.90
4530;DHT22;2277;51.626;7.516;2022-12-10T08:06:16;2.00;99.90
4530;DHT22;2277;51.626;7.516;2022-12-10T08:08:42;2.00;99.90
4530;DHT22;2277;51.626;7.516;2022-12-10T08:11:08;2.00;99.90
4530;DHT22;2277;51.626;7.516;2022-12-10T08:13:35;2.00;99.90
4530;DHT22;2277;51.626;7.516;2022-12-10T08:16:06;2.00;99.90
4530;DHT22;2277;51.626;7.516;2022-12-10T08:18:33;2.00;99.90
4530;DHT22;2277;51.626;7.516;2022-12-10T08:21:01;2.00;99.90
4530;DHT22;2277;51.626;7.516;2022-12-10T08:23:28;2.00;99.90
4530;DHT22;2277;51.626;7.516;2022-12-10T08:25:53;2.00;99.90
4530;DHT22;2277;51.626;7.516;2022-12-10T08:28:19;2.00;99.90
4530;DHT22;2277;51.626;7.516;2022-12-10T08:30:48;1.90;99.90
4530;DHT22;2277;51.626;7.516;2022-12-10T08:33:14;1.90;99.90
4530;DHT22;2277;51.626;7.516;2022-12-10T08:35:40;1.80;99.90
4530;DHT22;2277;51.626;7.516;2022-12-10T08:38:06;1.60;99.90
4530;DHT22;2277;51.626;7.516;2022-12-10T08:40:32;1.60;99.90
4530;DHT22;2277;51.626;7.516;2022-12-10T08:42:57;1.60;99.90
4530;DHT22;2277;51.626;7.516;2022-12-10T08:45:23;1.60;99.90
4530;DHT22;2277;51.626;7.516;2022-12-10T08:47:49;1.60;99.90
4530;DHT22;2277;51.626;7.516;2022-12-10T08:50:14;1.50;99.90
4530;DHT22;2277;51.626;7.516;2022-12-10T08:52:40;1.60;99.90
4530;DHT22;2277;51.626;7.516;2022-12-10T08:55:06;1.60;99.90
4530;DHT22;2277;51.626;7.516;2022-12-10T08:57:31;1.60;99.90
4530;DHT22;2277;51.626;7.516;2022-12-10T08:59:57;1.60;99.90
4530;DHT22;2277;51.626;7.516;2022-12-10T09:02:22;1.70;99.90
4530;DHT22;2277;51.626;7.516;2022-12-10T09:04:50;1.80;99.90
4530;DHT22;2277;51.626;7.516;2022-12-10T09:07:15;1.90;99.90
4530;DHT22;2277;51.626;7.516;2022-12-10T09:09:41;1.80;99.90
4530;DHT22;2277;51.626;7.516;2022-12-10T09:12:07;1.90;99.90
4530;DHT22;2277;51.626;7.516;2022-12-10T09:14:32;1.80;99.90
4530;DHT22;2277;51.626;7.516;2022-12-10T09:16:58;1.80;99.90
4530;DHT22;2277;51.626;7.516;2022-12-10T09:19:23;2.00;99.90
4530;DHT22;2277;51.626;7.516;2022-12-10T09:21:49;2.00;99.90
4530;DHT22;2277;51.626;7.516;2022-12-10T09:24:14;2.00;99.90
4530;DHT22;2277;51.626;7.516;2022-12-10T09:26:40;2.00;99.90
4530;DHT22;2277;51.626;7.516;2022-12-10T09:29:06;1.90;99.90
4530;DHT22;2277;51.626;7.516;2022-12-10T09:31:31;1.90;99.90
4530;DHT22;2277;51.626;7.516;2022-12-10T09:33:57;2.00;99.90
4530;DHT22;2277;51.626;7.516;2022-12-10T09:36:22;2.00;99.90
4530;DHT22;2277;51.626;7.516;2022-12-10T09:38:49;2.00;99.90
4530;DHT22;2277;51.626;7.516;2022-12-10T09:52:12;2.00;99.90
4530;DHT22;2277;51.626;7.516;2022-12-10T09:55:10;2.10;99.90
4530;DHT22;2277;51.626;7.516;2022-12-10T09:57:43;2.10;99.90
4530;DHT22;2277;51.626;7.516;2022-12-10T10:00:25;2.30;99.90
4530;DHT22;2277;51.626;7.516;2022-12-10T10:02:55;2.40;99.90
4530;DHT22;2277;51.626;7.516;2022-12-10T10:05:28;2.40;99.90
4530;DHT22;2277;51.626;7.516;2022-12-10T10:08:05;2.30;99.90
4530;DHT22;2277;51.626;7.516;2022-12-10T10:10:38;2.20;99.90
4530;DHT22;2277;51.626;7.516;2022-12-10T10:15:34;2.20;99.90
4530;DHT22;2277;51.626;7.516;2022-12-10T10:18:28;2.40;99.90
4530;DHT22;2277;51.626;7.516;2022-12-10T10:20:58;2.40;99.90
4530;DHT22;2277;51.626;7.516;2022-12-10T10:23:23;2.40;99.90
4530;DHT22;2277;51.626;7.516;2022-12-10T10:25:49;2.40;99.90
4530;DHT22;2277;51.626;7.516;2022-12-10T10:28:19;2.30;99.90
4530;DHT22;2277;51.626;7.516;2022-12-10T10:30:45;2.30;99.90
4530;DHT22;2277;51.626;7.516;2022-12-10T10:33:14;2.10;99.90
4530;DHT22;2277;51.626;7.516;2022-12-10T10:35:51;2.10;99.90
4530;DHT22;2277;51.626;7.516;2022-12-10T10:38:23;2.20;99.90
4530;DHT22;2277;51.626;7.516;2022-12-10T10:40:52;2.30;99.90
4530;DHT22;2277;51.626;7.516;2022-12-10T10:43:32;2.50;99.90
4530;DHT22;2277;51.626;7.516;2022-12-10T10:46:01;2.50;99.90
4530;DHT22;2277;51.626;7.516;2022-12-10T10:48:28;2.30;99.90
4530;DHT22;2277;51.626;7.516;2022-12-10T10:56:12;2.70;99.90
4530;DHT22;2277;51.626;7.516;2022-12-10T10:59:06;2.80;99.90
4530;DHT22;2277;51.626;7.516;2022-12-10T11:01:49;2.90;99.90
4530;DHT22;2277;51.626;7.516;2022-12-10T11:04:46;2.90;99.90
4530;DHT22;2277;51.626;7.516;2022-12-10T11:07:05;3.00;99.90
4530;DHT22;2277;51.626;7.516;2022-12-10T11:09:36;2.90;99.90
4530;DHT22;2277;51.626;7.516;2022-12-10T11:12:10;3.00;99.90
4530;DHT22;2277;51.626;7.516;2022-12-10T11:14:46;3.00;99.90
4530;DHT22;2277;51.626;7.516;2022-12-10T11:19:59;3.20;99.90
4530;DHT22;2277;51.626;7.516;2022-12-10T11:22:32;3.20;99.90
4530;DHT22;2277;51.626;7.516;2022-12-10T11:24:59;3.30;99.90
4530;DHT22;2277;51.626;7.516;2022-12-10T11:30:15;3.30;99.90
4530;DHT22;2277;51.626;7.516;2022-12-10T11:32:54;3.30;99.90
4530;DHT22;2277;51.626;7.516;2022-12-10T11:38:29;3.30;99.90
4530;DHT22;2277;51.626;7.516;2022-12-10T11:47:08;3.20;99.90
4530;DHT22;2277;51.626;7.516;2022-12-10T11:49:39;3.20;99.90
4530;DHT22;2277;51.626;7.516;2022-12-10T11:57:18;3.20;99.90
4530;DHT22;2277;51.626;7.516;2022-12-10T12:00:13;3.20;99.90
4530;DHT22;2277;51.626;7.516;2022-12-10T12:17:08;2.70;99.90
4530;DHT22;2277;51.626;7.516;2022-12-10T12:19:44;2.40;99.90
4530;DHT22;2277;51.626;7.516;2022-12-10T12:22:37;2.40;99.90
4530;DHT22;2277;51.626;7.516;2022-12-10T12:25:28;2.40;99.90
4530;DHT22;2277;51.626;7.516;2022-12-10T12:30:53;2.30;99.90
4530;DHT22;2277;51.626;7.516;2022-12-10T12:33:46;2.30;99.90
4530;DHT22;2277;51.626;7.516;2022-12-10T12:36:40;2.30;99.90
4530;DHT22;2277;51.626;7.516;2022-12-10T12:44:27;2.30;99.90
4530;DHT22;2277;51.626;7.516;2022-12-10T12:47:01;2.30;99.90
4530;DHT22;2277;51.626;7.516;2022-12-10T12:49:37;2.40;99.90
4530;DHT22;2277;51.626;7.516;2022-12-10T12:52:32;2.50;99.90
4530;DHT22;2277;51.626;7.516;2022-12-10T12:55:03;2.50;99.90
4530;DHT22;2277;51.626;7.516;2022-12-10T12:57:49;2.40;99.90
4530;DHT22;2277;51.626;7.516;2022-12-10T13:00:19;2.40;99.90
4530;DHT22;2277;51.626;7.516;2022-12-10T13:03:17;2.10;99.90
4530;DHT22;2277;51.626;7.516;2022-12-10T13:05:45;2.20;99.90
4530;DHT22;2277;51.626;7.516;2022-12-10T13:15:50;2.40;99.90
4530;DHT22;2277;51.626;7.516;2022-12-10T13:21:15;2.30;99.90
4530;DHT22;2277;51.626;7.516;2022-12-10T13:23:51;2.30;99.90
4530;DHT22;2277;51.626;7.516;2022-12-10T13:26:29;2.40;99.90
4530;DHT22;2277;51.626;7.516;2022-12-10T13:29:10;2.40;99.90
4530;DHT22;2277;51.626;7.516;2022-12-10T13:31:37;2.40;99.90
4530;DHT22;2277;51.626;7.516;2022-12-10T13:34:18;2.50;99.90
4530;DHT22;2277;51.626;7.516;2022-12-10T13:39:21;2.60;99.90
4530;DHT22;2277;51.626;7.516;2022-12-10T13:45:06;2.80;99.90
4530;DHT22;2277;51.626;7.516;2022-12-10T13:50:35;2.70;99.90
4530;DHT22;2277;51.626;7.516;2022-12-10T13:53:21;2.70;99.90
4530;DHT22;2277;51.626;7.516;2022-12-10T13:56:09;2.70;99.90
4530;DHT22;2277;51.626;7.516;2022-12-10T14:06:51;2.70;99.90
4530;DHT22;2277;51.626;7.516;2022-12-10T14:11:58;2.50;99.90
4530;DHT22;2277;51.626;7.516;2022-12-10T14:14:38;2.50;99.90
4530;DHT22;2277;51.626;7.516;2022-12-10T14:17:14;2.70;99.90
4530;DHT22;2277;51.626;7.516;2022-12-10T14:19:42;2.80;99.90
4530;DHT22;2277;51.626;7.516;2022-12-10T14:22:29;2.60;99.90
4530;DHT22;2277;51.626;7.516;2022-12-10T14:24:59;2.50;99.90
4530;DHT22;2277;51.626;7.516;2022-12-10T14:27:27;2.40;99.90
4530;DHT22;2277;51.626;7.516;2022-12-10T14:30:02;2.40;99.90
4530;DHT22;2277;51.626;7.516;2022-12-10T14:32:37;2.40;99.90
4530;DHT22;2277;51.626;7.516;2022-12-10T14:35:15;2.50;99.90
4530;DHT22;2277;51.626;7.516;2022-12-10T14:37:43;2.60;99.90
4530;DHT22;2277;51.626;7.516;2022-12-10T14:42:44;2.60;99.90
4530;DHT22;2277;51.626;7.516;2022-12-10T14:45:14;2.60;99.90
4530;DHT22;2277;51.626;7.516;2022-12-10T14:47:40;2.60;99.90
4530;DHT22;2277;51.626;7.516;2022-12-10T14:50:11;2.70;99.90
4530;DHT22;2277;51.626;7.516;2022-12-10T14:52:43;2.80;99.90
4530;DHT22;2277;51.626;7.516;2022-12-10T14:55:17;2.80;99.90
4530;DHT22;2277;51.626;7.516;2022-12-10T14:57:58;2.80;99.90
4530;DHT22;2277;51.626;7.516;2022-12-10T15:00:24;2.80;99.90
4530;DHT22;2277;51.626;7.516;2022-12-10T15:02:56;2.70;99.90
4530;DHT22;2277;51.626;7.516;2022-12-10T15:05:27;2.60;99.90
4530;DHT22;2277;51.626;7.516;2022-12-10T15:08:00;2.70;99.90
4530;DHT22;2277;51.626;7.516;2022-12-10T15:12:54;2.60;99.90
4530;DHT22;2277;51.626;7.516;2022-12-10T15:21:03;2.60;99.90
4530;DHT22;2277;51.626;7.516;2022-12-10T15:28:24;2.70;99.90
4530;DHT22;2277;51.626;7.516;2022-12-10T15:30:50;2.60;99.90
4530;DHT22;2277;51.626;7.516;2022-12-10T15:33:31;2.60;99.90
4530;DHT22;2277;51.626;7.516;2022-12-10T15:35:59;2.60;99.90
4530;DHT22;2277;51.626;7.516;2022-12-10T15:38:25;2.50;99.90
4530;DHT22;2277;51.626;7.516;2022-12-10T15:40:57;2.50;99.90
4530;DHT22;2277;51.626;7.516;2022-12-10T15:45:54;2.40;99.90
4530;DHT22;2277;51.626;7.516;2022-12-10T15:48:21;2.40;99.90
4530;DHT22;2277;51.626;7.516;2022-12-10T15:50:47;2.40;99.90
4530;DHT22;2277;51.626;7.516;2022-12-10T15:53:19;2.50;99.90
4530;DHT22;2277;51.626;7.516;2022-12-10T15:55:47;2.60;99.90
4530;DHT22;2277;51.626;7.516;2022-12-10T15:58:13;2.70;99.90
4530;DHT22;2277;51.626;7.516;2022-12-10T16:00:39;2.70;99.90
4530;DHT22;2277;51.626;7.516;2022-12-10T16:03:11;2.70;99.90
4530;DHT22;2277;51.626;7.516;2022-12-10T16:05:38;2.80;99.90
4530;DHT22;2277;51.626;7.516;2022-12-10T16:10:39;2.40;99.90
4530;DHT22;2277;51.626;7.516;2022-12-10T16:13:09;2.40;99.90
4530;DHT22;2277;51.626;7.516;2022-12-10T16:15:43;2.50;99.90
4530;DHT22;2277;51.626;7.516;2022-12-10T16:18:10;2.70;99.90
4530;DHT22;2277;51.626;7.516;2022-12-10T16:20:36;2.70;99.90
4530;DHT22;2277;51.626;7.516;2022-12-10T16:23:02;2.70;99.90
4530;DHT22;2277;51.626;7.516;2022-12-10T16:25:30;2.70;99.90
4530;DHT22;2277;51.626;7.516;2022-12-10T16:27:58;2.70;99.90
4530;DHT22;2277;51.626;7.516;2022-12-10T16:30:29;2.70;99.90
4530;DHT22;2277;51.626;7.516;2022-12-10T16:32:56;2.60;99.90
4530;DHT22;2277;51.626;7.516;2022-12-10T16:35:22;2.50;99.90
4530;DHT22;2277;51.626;7.516;2022-12-10T16:37:49;2.50;99.90
4530;DHT22;2277;51.626;7.516;2022-12-10T16:40:17;2.60;99.90
4530;DHT22;2277;51.626;7.516;2022-12-10T16:42:42;2.60;99.90
4530;DHT22;2277;51.626;7.516;2022-12-10T16:45:12;2.60;99.90
4530;DHT22;2277;51.626;7.516;2022-12-10T16:47:39;2.70;99.90
4530;DHT22;2277;51.626;7.516;2022-12-10T16:50:04;2.70;99.90
4530;DHT22;2277;51.626;7.516;2022-12-10T16:52:30;2.60;99.90
4530;DHT22;2277;51.626;7.516;2022-12-10T16:54:56;2.70;99.90
4530;DHT22;2277;51.626;7.516;2022-12-10T16:57:21;2.70;99.90
4530;DHT22;2277;51.626;7.516;2022-12-10T16:59:47;2.80;99.90
4530;DHT22;2277;51.626;7.516;2022-12-10T17:02:14;2.80;99.90
4530;DHT22;2277;51.626;7.516;2022-12-10T17:04:41;2.70;99.90
4530;DHT22;2277;51.626;7.516;2022-12-10T17:07:09;2.70;99.90
4530;DHT22;2277;51.626;7.516;2022-12-10T17:09:34;2.70;99.90
4530;DHT22;2277;51.626;7.516;2022-12-10T17:12:00;2.70;99.90
4530;DHT22;2277;51.626;7.516;2022-12-10T17:14:36;2.70;99.90
4530;DHT22;2277;51.626;7.516;2022-12-10T17:17:03;2.70;99.90
4530;DHT22;2277;51.626;7.516;2022-12-10T17:19:31;2.70;99.90
4530;DHT22;2277;51.626;7.516;2022-12-10T17:21:57;2.70;99.90
4530;DHT22;2277;51.626;7.516;2022-12-10T17:24:22;2.70;99.90
4530;DHT22;2277;51.626;7.516;2022-12-10T17:26:48;2.60;99.90
4530;DHT22;2277;51.626;7.516;2022-12-10T17:29:16;2.60;99.90
4530;DHT22;2277;51.626;7.516;2022-12-10T17:31:44;2.60;99.90
4530;DHT22;2277;51.626;7.516;2022-12-10T17:34:13;2.60;99.90
4530;DHT22;2277;51.626;7.516;2022-12-10T17:36:40;2.70;99.90
4530;DHT22;2277;51.626;7.516;2022-12-10T17:39:09;2.70;99.90
4530;DHT22;2277;51.626;7.516;2022-12-10T17:41:36;2.70;99.90
4530;DHT22;2277;51.626;7.516;2022-12-10T17:44:03;2.70;99.90
4530;DHT22;2277;51.626;7.516;2022-12-10T17:46:29;2.70;99.90
4530;DHT22;2277;51.626;7.516;2022-12-10T17:48:55;2.80;99.90
4530;DHT22;2277;51.626;7.516;2022-12-10T17:51:20;2.70;99.90
4530;DHT22;2277;51.626;7.516;2022-12-10T17:53:46;2.70;99.90
4530;DHT22;2277;51.626;7.516;2022-12-10T17:56:23;2.70;99.90
4530;DHT22;2277;51.626;7.516;2022-12-10T17:58:51;2.80;99.90
4530;DHT22;2277;51.626;7.516;2022-12-10T18:01:18;2.70;99.90
4530;DHT22;2277;51.626;7.516;2022-12-10T18:03:44;2.80;99.90
4530;DHT22;2277;51.626;7.516;2022-12-10T18:06:18;2.80;99.90
4530;DHT22;2277;51.626;7.516;2022-12-10T18:08:45;2.90;99.90
4530;DHT22;2277;51.626;7.516;2022-12-10T18:11:23;2.80;99.90
4530;DHT22;2277;51.626;7.516;2022-12-10T18:13:49;2.90;99.90
4530;DHT22;2277;51.626;7.516;2022-12-10T18:16:28;2.90;99.90
4530;DHT22;2277;51.626;7.516;2022-12-10T18:18:56;2.90;99.90
4530;DHT22;2277;51.626;7.516;2022-12-10T18:21:23;2.90;99.90
4530;DHT22;2277;51.626;7.516;2022-12-10T18:23:49;2.90;99.90
4530;DHT22;2277;51.626;7.516;2022-12-10T18:26:18;2.90;99.90
4530;DHT22;2277;51.626;7.516;2022-12-10T18:28:46;2.90;99.90
4530;DHT22;2277;51.626;7.516;2022-12-10T18:31:21;2.90;99.90
4530;DHT22;2277;51.626;7.516;2022-12-10T18:33:51;2.90;99.90
4530;DHT22;2277;51.626;7.516;2022-12-10T18:36:20;2.90;99.90